createdAt,value
2022-10-06T00:01:14.937Z,94979.03
2022-10-06T00:03:42.781Z,94976.56
2022-10-06T00:06:11.561Z,94981.75
2022-10-06T00:08:39.545Z,94980.91
2022-10-06T00:11:07.293Z,94986.31
2022-10-06T00:13:35.024Z,94988.22
2022-10-06T00:16:04.139Z,94987.38
2022-10-06T00:18:33.158Z,94987.38
2022-10-06T00:21:01.757Z,94986.59
2022-10-06T00:23:29.444Z,94983.03
2022-10-06T00:25:57.023Z,94994.69
2022-10-06T00:28:24.617Z,94993.63
2022-10-06T00:30:53.594Z,94998.22
2022-10-06T00:33:21.268Z,94992.81
2022-10-06T00:35:56.426Z,94993.63
2022-10-06T00:38:23.931Z,94989.28
2022-10-06T00:40:52.009Z,94989.28
2022-10-06T00:43:44.180Z,94990.94
2022-10-06T00:46:13.932Z,94994.69
2022-10-06T00:48:41.647Z,94988.44
2022-10-06T00:51:10.577Z,94995.72
2022-10-06T00:53:38.124Z,94987.38
2022-10-06T00:56:05.886Z,94988.44
2022-10-06T00:58:33.439Z,94993.03
2022-10-06T01:01:00.994Z,95003.03
2022-10-06T01:03:30.336Z,94996.56
2022-10-06T01:05:57.910Z,94998.44
2022-10-06T01:08:27.153Z,94998.44
2022-10-06T01:10:55.105Z,94996.81
2022-10-06T01:13:22.652Z,95000.34
2022-10-06T01:15:52.274Z,95002.22
2022-10-06T01:18:19.882Z,94999.50
2022-10-06T01:20:49.430Z,95004.91
2022-10-06T01:23:18.353Z,95007.41
2022-10-06T01:25:45.874Z,95007.41
2022-10-06T01:28:13.541Z,95005.75
2022-10-06T01:30:45.909Z,95008.47
2022-10-06T01:33:13.532Z,95004.13
2022-10-06T01:35:41.084Z,95006.81
2022-10-06T01:38:08.594Z,95005.75
2022-10-06T01:40:37.497Z,95012.22
2022-10-06T01:43:05.020Z,95008.69
2022-10-06T01:45:32.562Z,95012.22
2022-10-06T01:48:00.148Z,95012.22
2022-10-06T01:50:27.722Z,95016.00
2022-10-06T01:52:56.446Z,95016.81
2022-10-06T01:55:24.212Z,95016.81
2022-10-06T01:57:53.150Z,95020.34
2022-10-06T02:00:20.970Z,95020.34
2022-10-06T02:02:48.485Z,95023.88
2022-10-06T02:05:16.073Z,95024.13
2022-10-06T02:07:43.618Z,95021.16
2022-10-06T02:10:11.169Z,95026.56
2022-10-06T02:12:39.158Z,95025.75
2022-10-06T02:15:10.939Z,95027.63
2022-10-06T02:17:38.813Z,95028.69
2022-10-06T02:20:07.045Z,95029.53
2022-10-06T02:22:38.477Z,95028.69
2022-10-06T02:25:06.461Z,95029.53
2022-10-06T02:27:33.973Z,95033.31
2022-10-06T02:30:01.577Z,95027.91
2022-10-06T02:32:36.558Z,95026.84
2022-10-06T02:35:04.719Z,95023.28
2022-10-06T02:37:32.272Z,95028.69
2022-10-06T02:39:59.783Z,95024.34
2022-10-06T02:42:27.425Z,95033.31
2022-10-06T02:44:54.975Z,95043.06
2022-10-06T02:47:22.645Z,95040.38
2022-10-06T02:49:51.701Z,95038.72
2022-10-06T02:52:19.274Z,95044.94
2022-10-06T02:54:47.029Z,95046.84
2022-10-06T02:57:15.336Z,95045.19
2022-10-06T02:59:43.486Z,95046.84
2022-10-06T03:02:11.135Z,95055.19
2022-10-06T03:04:38.764Z,95053.31
2022-10-06T03:07:07.639Z,95054.38
2022-10-06T03:09:35.162Z,95057.09
2022-10-06T03:12:02.772Z,95062.50
2022-10-06T03:14:30.298Z,95066.00
2022-10-06T03:16:57.853Z,95066.84
2022-10-06T03:19:25.407Z,95066.84
2022-10-06T03:21:52.954Z,95074.13
2022-10-06T03:24:21.869Z,95074.13
2022-10-06T03:26:49.390Z,95073.06
2022-10-06T03:29:17.114Z,95064.16
2022-10-06T03:31:44.788Z,95080.38
2022-10-06T03:34:13.414Z,95074.97
2022-10-06T03:36:40.963Z,95079.53
2022-10-06T03:39:08.704Z,95078.47
2022-10-06T03:41:38.037Z,95082.25
2022-10-06T03:44:05.680Z,95084.97
2022-10-06T03:46:35.106Z,95086.84
2022-10-06T03:49:02.802Z,95084.97
2022-10-06T03:51:31.630Z,95086.84
2022-10-06T03:53:59.518Z,95099.34
2022-10-06T03:56:28.125Z,95097.44
2022-10-06T03:58:57.679Z,95103.91
2022-10-06T04:01:26.782Z,95103.91
2022-10-06T04:03:54.574Z,95101.19
2022-10-06T04:06:22.229Z,95103.91
2022-10-06T04:08:50.423Z,95099.56
2022-10-06T04:11:18.801Z,95101.44
2022-10-06T04:13:46.354Z,95102.25
2022-10-06T04:16:16.419Z,95101.44
2022-10-06T04:18:44.310Z,95104.13
2022-10-06T04:21:12.012Z,95104.13
2022-10-06T04:23:39.614Z,95106.63
2022-10-06T04:26:09.808Z,95109.31
2022-10-06T04:28:38.099Z,95113.66
2022-10-06T04:31:07.140Z,95123.69
2022-10-06T04:33:36.096Z,95119.09
2022-10-06T04:36:04.472Z,95123.69
2022-10-06T04:38:33.333Z,95122.84
2022-10-06T04:41:05.592Z,95116.63
2022-10-06T04:43:33.132Z,95119.34
2022-10-06T04:46:09.399Z,95138.28
2022-10-06T04:48:47.459Z,95145.56
2022-10-06T04:51:15.716Z,95132.88
2022-10-06T04:53:44.068Z,95137.44
2022-10-06T04:56:12.653Z,95141.81
2022-10-06T04:58:41.069Z,95146.41
2022-10-06T05:01:13.871Z,95146.41
2022-10-06T05:03:41.468Z,95150.16
2022-10-06T05:06:12.512Z,95150.16
2022-10-06T05:08:40.241Z,95145.78
2022-10-06T05:11:13.657Z,95152.84
2022-10-06T05:13:44.156Z,95160.16
2022-10-06T05:16:13.587Z,95158.25
2022-10-06T05:18:41.362Z,95162.88
2022-10-06T05:21:12.774Z,95159.31
2022-10-06T05:23:41.377Z,95157.47
2022-10-06T05:26:08.913Z,95155.81
2022-10-06T05:28:36.498Z,95158.53
2022-10-06T05:31:05.522Z,95164.75
2022-10-06T05:33:34.094Z,95171.78
2022-10-06T05:36:02.438Z,95177.47
2022-10-06T05:38:31.902Z,95180.97
2022-10-06T05:41:03.177Z,95189.94
2022-10-06T05:43:30.946Z,95182.03
2022-10-06T05:45:59.376Z,95191.81
2022-10-06T05:48:27.591Z,95197.00
2022-10-06T05:51:01.435Z,95192.41
2022-10-06T05:53:29.173Z,95197.22
2022-10-06T05:56:08.040Z,95208.88
2022-10-06T05:58:36.311Z,95210.75
2022-10-06T06:01:08.053Z,95218.06
2022-10-06T06:03:35.577Z,95220.78
2022-10-06T06:06:03.302Z,95226.19
2022-10-06T06:08:31.380Z,95222.63
2022-10-06T06:11:08.230Z,95221.56
2022-10-06T06:13:35.850Z,95224.53
2022-10-06T06:16:04.155Z,95230.75
2022-10-06T06:18:32.464Z,95228.06
2022-10-06T06:21:00.925Z,95240.78
2022-10-06T06:23:32.245Z,95241.59
2022-10-06T06:26:02.510Z,95248.06
2022-10-06T06:28:32.303Z,95247.00
2022-10-06T06:31:02.444Z,95252.41
2022-10-06T06:33:30.418Z,95249.69
2022-10-06T06:36:01.135Z,95248.91
2022-10-06T06:38:29.195Z,95262.19
2022-10-06T06:40:56.872Z,95257.59
2022-10-06T06:43:24.475Z,95260.53
2022-10-06T06:45:53.429Z,95265.94
2022-10-06T06:48:21.000Z,95270.53
2022-10-06T06:50:56.851Z,95276.78
2022-10-06T06:53:24.493Z,95276.78
2022-10-06T06:55:52.477Z,95274.91
2022-10-06T06:58:20.186Z,95286.53
2022-10-06T07:00:48.046Z,95284.09
2022-10-06T07:03:28.230Z,95296.56
2022-10-06T07:06:08.785Z,95300.06
2022-10-06T07:08:36.943Z,95297.38
2022-10-06T07:11:14.950Z,95301.97
2022-10-06T07:13:43.013Z,95296.56
2022-10-06T07:16:29.144Z,95305.50
2022-10-06T07:19:15.392Z,95309.03
2022-10-06T07:22:00.813Z,95309.03
2022-10-06T07:24:45.845Z,95315.25
2022-10-06T07:27:13.677Z,95316.09
2022-10-06T07:29:41.269Z,95316.09
2022-10-06T07:32:08.871Z,95317.97
2022-10-06T07:34:37.959Z,95319.84
2022-10-06T07:37:06.514Z,95319.63
2022-10-06T07:39:34.337Z,95320.66
2022-10-06T07:42:01.845Z,95325.88
2022-10-06T07:44:29.399Z,95327.75
2022-10-06T07:46:56.922Z,95322.34
2022-10-06T07:49:24.905Z,95324.81
2022-10-06T07:51:53.798Z,95329.41
2022-10-06T07:54:26.552Z,95332.13
2022-10-06T07:56:54.938Z,95334.81
2022-10-06T07:59:22.531Z,95334.81
2022-10-06T08:01:52.351Z,95333.97
2022-10-06T08:04:19.983Z,95336.69
2022-10-06T08:06:49.369Z,95344.59
2022-10-06T08:09:18.257Z,95341.03
2022-10-06T08:11:47.257Z,95341.88
2022-10-06T08:14:15.061Z,95348.34
2022-10-06T08:16:42.600Z,95352.72
2022-10-06T08:19:11.531Z,95358.13
2022-10-06T08:21:39.538Z,95351.88
2022-10-06T08:24:07.246Z,95351.88
2022-10-06T08:26:36.112Z,95353.53
2022-10-06T08:29:04.439Z,95352.72
2022-10-06T08:31:32.232Z,95359.78
2022-10-06T08:33:59.917Z,95349.75
2022-10-06T08:36:31.404Z,95354.94
2022-10-06T08:39:00.022Z,95357.66
2022-10-06T08:41:28.380Z,95360.38
2022-10-06T08:44:00.827Z,95362.84
2022-10-06T08:46:31.522Z,95360.16
2022-10-06T08:48:59.246Z,95359.91
2022-10-06T08:51:34.624Z,95360.97
2022-10-06T08:54:05.060Z,95362.59
2022-10-06T08:56:33.563Z,95364.25
2022-10-06T08:59:04.115Z,95368.63
2022-10-06T09:01:33.777Z,95359.22
2022-10-06T09:04:02.231Z,95363.56
2022-10-06T09:06:51.605Z,95366.06
2022-10-06T09:09:25.162Z,95366.06
2022-10-06T09:11:58.506Z,95366.66
2022-10-06T09:14:30.863Z,95373.50
2022-10-06T09:17:00.648Z,95369.94
2022-10-06T09:19:39.850Z,95365.38
2022-10-06T09:22:07.673Z,95365.13
2022-10-06T09:24:37.228Z,95364.06
2022-10-06T09:27:15.948Z,95359.50
2022-10-06T09:29:44.844Z,95360.06
2022-10-06T09:32:12.387Z,95363.59
2022-10-06T09:34:41.542Z,95367.97
2022-10-06T09:37:11.033Z,95362.31
2022-10-06T09:39:39.985Z,95371.88
2022-10-06T09:42:12.385Z,95363.75
2022-10-06T09:44:48.126Z,95369.75
2022-10-06T09:47:40.412Z,95365.16
2022-10-06T09:50:21.858Z,95373.03
2022-10-06T09:53:04.205Z,95366.56
2022-10-06T09:55:33.740Z,95365.50
2022-10-06T09:58:01.308Z,95361.75
2022-10-06T10:00:31.623Z,95366.09
2022-10-06T10:02:59.947Z,95361.31
2022-10-06T10:05:28.732Z,95359.19
2022-10-06T10:08:02.770Z,95357.88
2022-10-06T10:10:34.359Z,95362.00
2022-10-06T10:13:01.914Z,95353.66
2022-10-06T10:15:33.047Z,95363.19
2022-10-06T10:18:02.992Z,95361.31
2022-10-06T10:20:34.286Z,95364.88
2022-10-06T10:23:04.786Z,95364.88
2022-10-06T10:26:17.639Z,95358.59
2022-10-06T10:28:58.163Z,95355.06
2022-10-06T10:31:32.231Z,95355.06
2022-10-06T10:34:12.696Z,95362.97
2022-10-06T10:36:50.741Z,95358.38
2022-10-06T10:39:20.435Z,95366.50
2022-10-06T10:41:50.032Z,95371.69
2022-10-06T10:44:24.482Z,95367.91
2022-10-06T10:46:54.717Z,95370.63
2022-10-06T10:49:26.555Z,95369.56
2022-10-06T10:51:55.666Z,95374.97
2022-10-06T10:54:26.665Z,95372.03
2022-10-06T10:56:54.228Z,95374.75
2022-10-06T10:59:23.263Z,95372.25
2022-10-06T11:01:52.143Z,95367.91
2022-10-06T11:04:21.221Z,95369.56
2022-10-06T11:07:00.238Z,95371.19
2022-10-06T11:09:31.118Z,95368.50
2022-10-06T11:12:07.875Z,95360.38
2022-10-06T11:14:46.797Z,95359.34
2022-10-06T11:17:19.807Z,95371.81
2022-10-06T11:19:52.062Z,95360.16
2022-10-06T11:22:22.913Z,95362.84
2022-10-06T11:24:55.091Z,95364.75
2022-10-06T11:27:28.646Z,95362.63
2022-10-06T11:30:02.336Z,95360.97
2022-10-06T11:32:36.213Z,95351.22
2022-10-06T11:35:14.904Z,95347.66
2022-10-06T11:37:46.798Z,95351.22
2022-10-06T11:40:23.830Z,95343.88
2022-10-06T11:42:53.391Z,95341.19
2022-10-06T11:45:23.340Z,95343.06
2022-10-06T11:48:00.857Z,95344.72
2022-10-06T11:50:36.430Z,95348.25
2022-10-06T11:53:04.313Z,95340.13
2022-10-06T11:55:31.954Z,95339.06
2022-10-06T12:01:02.304Z,95336.94
2022-10-06T12:03:47.221Z,95336.94
2022-10-06T12:07:06.794Z,95345.91
2022-10-06T12:10:00.530Z,95335.88
2022-10-06T12:13:06.801Z,95341.06
2022-10-06T12:18:48.096Z,95338.34
2022-10-06T12:21:32.636Z,95335.41
2022-10-06T12:24:05.013Z,95326.47
2022-10-06T12:26:41.536Z,95322.69
2022-10-06T12:29:32.653Z,95320.81
2022-10-06T12:32:04.020Z,95319.97
2022-10-06T12:34:45.047Z,95316.19
2022-10-06T12:37:31.857Z,95310.78
2022-10-06T12:40:32.746Z,95315.13
2022-10-06T12:43:46.457Z,95308.91
2022-10-06T12:46:17.635Z,95315.97
2022-10-06T12:48:51.648Z,95307.00
2022-10-06T12:51:25.328Z,95310.34
2022-10-06T12:53:58.329Z,95306.78
2022-10-06T12:56:28.834Z,95306.78
2022-10-06T12:58:56.660Z,95304.06
2022-10-06T13:01:25.686Z,95296.78
2022-10-06T13:03:53.669Z,95303.00
2022-10-06T13:06:22.774Z,95297.59
2022-10-06T13:09:04.287Z,95295.72
2022-10-06T13:11:31.896Z,95297.59
2022-10-06T13:14:07.521Z,95301.94
2022-10-06T13:16:39.355Z,95294.66
2022-10-06T13:19:15.944Z,95298.44
2022-10-06T13:21:43.665Z,95301.13
2022-10-06T13:24:12.325Z,95293.81
2022-10-06T13:26:39.941Z,95294.66
2022-10-06T13:29:22.431Z,95297.38
2022-10-06T13:31:53.150Z,95292.75
2022-10-06T13:34:24.082Z,95295.47
2022-10-06T13:36:51.857Z,95297.38
2022-10-06T13:39:20.373Z,95290.03
2022-10-06T13:41:48.805Z,95301.72
2022-10-06T13:44:27.920Z,95291.09
2022-10-06T13:46:58.232Z,95295.47
2022-10-06T13:49:28.515Z,95292.75
2022-10-06T13:51:57.130Z,95284.88
2022-10-06T13:54:26.207Z,95292.75
2022-10-06T13:56:53.777Z,95291.09
2022-10-06T13:59:30.956Z,95282.16
2022-10-06T14:02:01.995Z,95286.53
2022-10-06T14:04:30.313Z,95289.25
2022-10-06T14:06:59.457Z,95291.94
2022-10-06T14:09:27.709Z,95290.88
2022-10-06T14:11:55.557Z,95295.47
2022-10-06T14:14:23.177Z,95288.41
2022-10-06T14:16:52.311Z,95293.59
2022-10-06T14:19:35.705Z,95282.75
2022-10-06T14:22:03.636Z,95288.41
2022-10-06T14:24:34.068Z,95283.81
2022-10-06T14:27:02.340Z,95283.81
2022-10-06T14:29:31.452Z,95280.28
2022-10-06T14:32:07.792Z,95286.75
2022-10-06T14:34:36.764Z,95281.56
2022-10-06T14:37:04.328Z,95280.75
2022-10-06T14:39:31.910Z,95281.56
2022-10-06T14:42:00.044Z,95280.75
2022-10-06T14:44:27.605Z,95270.97
2022-10-06T14:46:55.139Z,95282.63
2022-10-06T14:49:22.672Z,95274.75
2022-10-06T14:51:52.075Z,95278.25
2022-10-06T14:54:20.082Z,95280.16
2022-10-06T14:56:47.628Z,95280.38
2022-10-06T14:59:17.084Z,95274.97
2022-10-06T15:01:45.580Z,95274.97
2022-10-06T15:04:13.924Z,95278.53
2022-10-06T15:06:59.146Z,95268.75
2022-10-06T15:09:30.788Z,95268.75
2022-10-06T15:11:58.858Z,95270.38
2022-10-06T15:14:28.260Z,95260.84
2022-10-06T15:16:58.953Z,95274.97
2022-10-06T15:19:26.620Z,95269.81
2022-10-06T15:22:12.706Z,95265.19
2022-10-06T15:25:03.425Z,95260.84
2022-10-06T15:27:48.646Z,95261.69
2022-10-06T15:30:16.381Z,95258.97
2022-10-06T15:32:44.067Z,95263.56
2022-10-06T15:35:11.627Z,95258.13
2022-10-06T15:37:39.249Z,95265.41
2022-10-06T15:40:09.144Z,95257.28
2022-10-06T15:42:36.676Z,95257.28
2022-10-06T15:45:07.474Z,95262.72
2022-10-06T15:47:35.522Z,95257.28
2022-10-06T15:50:03.457Z,95265.41
2022-10-06T15:52:33.824Z,95260.84
2022-10-06T15:55:01.394Z,95264.59
2022-10-06T15:57:31.359Z,95268.13
2022-10-06T15:59:58.929Z,95264.59
2022-10-06T16:02:27.094Z,95270.03
2022-10-06T16:05:18.404Z,95263.78
2022-10-06T16:07:45.940Z,95257.53
2022-10-06T16:10:13.740Z,95266.47
2022-10-06T16:12:42.641Z,95265.69
2022-10-06T16:15:11.052Z,95262.97
2022-10-06T16:17:38.878Z,95259.41
2022-10-06T16:20:07.516Z,95270.25
2022-10-06T16:22:35.367Z,95263.19
2022-10-06T16:25:03.231Z,95259.41
2022-10-06T16:27:33.476Z,95263.19
2022-10-06T16:30:02.585Z,95269.44
2022-10-06T16:32:30.141Z,95262.13
2022-10-06T16:34:57.758Z,95264.03
2022-10-06T16:37:25.308Z,95266.75
2022-10-06T16:39:52.890Z,95272.97
2022-10-06T16:42:20.401Z,95276.75
2022-10-06T16:44:47.970Z,95275.09
2022-10-06T16:47:16.939Z,95271.56
2022-10-06T16:49:44.471Z,95273.44
2022-10-06T16:52:11.989Z,95281.56
2022-10-06T16:54:39.525Z,95279.69
2022-10-06T16:57:07.385Z,95273.44
2022-10-06T16:59:34.909Z,95279.69
2022-10-06T17:02:02.449Z,95269.66
2022-10-06T17:04:31.342Z,95275.94
2022-10-06T17:06:58.908Z,95274.88
2022-10-06T17:09:27.109Z,95280.88
2022-10-06T17:11:55.434Z,95278.38
2022-10-06T17:14:23.100Z,95274.59
2022-10-06T17:16:51.636Z,95274.59
2022-10-06T17:19:20.230Z,95279.22
2022-10-06T17:21:54.055Z,95285.81
2022-10-06T17:24:25.404Z,95281.34
2022-10-06T17:26:52.956Z,95284.53
2022-10-06T17:29:21.662Z,95281.22
2022-10-06T17:31:50.377Z,95286.88
2022-10-06T17:34:21.169Z,95288.75
2022-10-06T17:36:51.878Z,95297.91
2022-10-06T17:39:20.568Z,95287.28
2022-10-06T17:41:48.829Z,95297.75
2022-10-06T17:44:18.734Z,95298.44
2022-10-06T17:46:47.094Z,95298.56
2022-10-06T17:49:35.137Z,95296.84
2022-10-06T17:52:24.525Z,95300.72
2022-10-06T17:54:54.337Z,95300.03
2022-10-06T17:57:21.873Z,95305.81
2022-10-06T17:59:49.435Z,95304.25
2022-10-06T18:02:17.127Z,95296.94
2022-10-06T18:04:46.212Z,95305.41
2022-10-06T18:07:13.800Z,95296.78
2022-10-06T18:10:02.981Z,95297.94
2022-10-06T18:12:36.040Z,95294.72
2022-10-06T18:15:03.613Z,95292.34
2022-10-06T18:17:31.389Z,95299.19
2022-10-06T18:19:58.896Z,95297.28
2022-10-06T18:22:26.525Z,95298.94
2022-10-06T18:24:59.202Z,95293.28
2022-10-06T18:27:27.195Z,95298.44
2022-10-06T18:29:54.710Z,95297.41
2022-10-06T18:37:59.088Z,95287.19
2022-10-06T18:40:27.989Z,95296.75
2022-10-06T18:42:55.569Z,95291.06
2022-10-06T18:45:40.883Z,95300.03
2022-10-06T18:48:26.604Z,95296.47
2022-10-06T18:51:01.111Z,95292.47
2022-10-06T18:53:30.986Z,95298.47
2022-10-06T18:55:59.938Z,95293.03
2022-10-06T18:58:27.466Z,95293.88
2022-10-06T19:00:55.852Z,95297.16
2022-10-06T19:03:23.400Z,95292.53
2022-10-06T19:05:54.032Z,95296.66
2022-10-06T19:08:21.553Z,95295.59
2022-10-06T19:11:03.041Z,95297.22
2022-10-06T19:13:31.931Z,95304.06
2022-10-06T19:15:59.922Z,95297.06
2022-10-06T19:18:33.936Z,95295.19
2022-10-06T19:21:03.133Z,95295.19
2022-10-06T19:23:33.925Z,95285.97
2022-10-06T19:26:01.682Z,95296.59
2022-10-06T19:28:30.374Z,95284.31
2022-10-06T19:31:00.194Z,95283.19
2022-10-06T19:33:27.733Z,95282.28
2022-10-06T19:35:55.346Z,95284.66
2022-10-06T19:38:23.073Z,95286.44
2022-10-06T19:40:50.781Z,95282.00
2022-10-06T19:43:17.577Z,95280.84
2022-10-06T19:45:45.424Z,95282.63
2022-10-06T19:48:14.483Z,95284.44
2022-10-06T19:50:42.092Z,95286.84
2022-10-06T19:53:09.611Z,95281.31
2022-10-06T19:55:37.180Z,95285.59
2022-10-06T19:58:04.741Z,95284.44
2022-10-06T20:00:32.293Z,95289.50
2022-10-06T20:02:59.886Z,95287.28
2022-10-06T20:05:29.146Z,95281.22
2022-10-06T20:07:56.834Z,95293.41
2022-10-06T20:10:24.427Z,95289.28
2022-10-06T20:12:52.050Z,95288.13
2022-10-06T20:15:19.797Z,95289.44
2022-10-06T20:17:47.779Z,95287.78
2022-10-06T20:20:15.776Z,95289.09
2022-10-06T20:22:45.401Z,95284.16
2022-10-06T20:25:12.933Z,95284.38
2022-10-06T20:27:40.581Z,95289.22
2022-10-06T20:30:09.166Z,95287.84
2022-10-06T20:32:36.742Z,95289.13
2022-10-06T20:35:04.687Z,95283.13
2022-10-06T20:37:32.252Z,95276.06
2022-10-06T20:40:19.029Z,95272.75
2022-10-06T20:42:49.309Z,95273.00
2022-10-06T20:45:17.091Z,95271.34
2022-10-06T20:47:45.478Z,95265.34
2022-10-06T20:50:13.979Z,95265.34
2022-10-06T20:52:41.583Z,95262.06
2022-10-06T20:55:10.731Z,95263.09
2022-10-06T20:57:38.265Z,95265.00
2022-10-06T21:00:07.240Z,95261.72
2022-10-06T21:02:34.989Z,95267.13
2022-10-06T21:05:02.704Z,95270.91
2022-10-06T21:07:30.307Z,95262.19
2022-10-06T21:09:57.882Z,95259.47
2022-10-06T21:12:26.983Z,95258.88
2022-10-06T21:14:56.913Z,95258.88
2022-10-06T21:17:24.587Z,95255.34
2022-10-06T21:19:52.141Z,95254.50
2022-10-06T21:22:19.691Z,95251.00
2022-10-06T21:24:47.189Z,95253.94
2022-10-06T21:27:18.329Z,95249.34
2022-10-06T21:29:47.593Z,95248.78
2022-10-06T21:32:15.226Z,95249.56
2022-10-06T21:34:42.768Z,95245.22
2022-10-06T21:37:10.385Z,95243.56
2022-10-06T21:39:37.904Z,95236.50
2022-10-06T21:42:05.487Z,95240.03
2022-10-06T21:44:33.083Z,95229.44
2022-10-06T21:47:02.917Z,95234.84
2022-10-06T21:49:30.628Z,95234.84
2022-10-06T21:52:03.456Z,95226.16
2022-10-06T21:54:31.068Z,95229.66
2022-10-06T21:56:59.065Z,95224.50
2022-10-06T21:59:26.644Z,95219.06
2022-10-06T22:01:54.204Z,95217.41
2022-10-06T22:04:23.197Z,95224.72
2022-10-06T22:06:50.710Z,95218.25
2022-10-06T22:09:19.091Z,95212.25
2022-10-06T22:11:46.611Z,95210.34
2022-10-06T22:14:14.837Z,95205.16
2022-10-06T22:16:42.429Z,95204.34
2022-10-06T22:19:11.480Z,95206.22
2022-10-06T22:21:41.103Z,95200.81
2022-10-06T22:24:09.518Z,95192.91
2022-10-06T22:26:38.349Z,95196.47
2022-10-06T22:29:06.159Z,95191.03
2022-10-06T22:31:34.076Z,95189.38
2022-10-06T22:34:04.584Z,95185.84
2022-10-06T22:36:32.964Z,95185.84
2022-10-06T22:39:01.825Z,95187.72
2022-10-06T22:41:29.451Z,95186.06
2022-10-06T22:43:57.938Z,95183.34
2022-10-06T22:46:25.655Z,95180.66
2022-10-06T22:48:53.233Z,95176.28
2022-10-06T22:51:20.808Z,95177.34
2022-10-06T22:53:48.322Z,95173.84
2022-10-06T22:56:17.193Z,95163.81
2022-10-06T22:58:44.715Z,95166.50
2022-10-06T23:01:12.627Z,95158.63
2022-10-06T23:03:40.488Z,95161.34
2022-10-06T23:06:08.792Z,95161.34
2022-10-06T23:08:36.988Z,95155.09
2022-10-06T23:11:05.540Z,95148.84
2022-10-06T23:13:34.424Z,95148.84
2022-10-06T23:16:07.208Z,95148.03
2022-10-06T23:18:35.716Z,95149.91
2022-10-06T23:21:04.424Z,95154.50
2022-10-06T23:23:32.253Z,95147.19
2022-10-06T23:26:04.264Z,95139.88
2022-10-06T23:28:31.875Z,95148.25
2022-10-06T23:31:00.813Z,95143.91
2022-10-06T23:33:30.273Z,95136.59
2022-10-06T23:35:59.081Z,95140.38
2022-10-06T23:38:26.722Z,95134.97
2022-10-06T23:40:54.269Z,95134.97
2022-10-06T23:43:22.083Z,95142.03
2022-10-06T23:45:50.107Z,95136.84
2022-10-06T23:48:18.991Z,95142.25
2022-10-06T23:50:55.859Z,95134.13
2022-10-06T23:53:23.380Z,95128.13
2022-10-06T23:55:50.921Z,95135.19
2022-10-06T23:58:18.710Z,95133.53
